createdAt,value
2023-03-08T00:00:41.806Z,94507.27
2023-03-08T00:03:13.424Z,94509.19
2023-03-08T00:05:42.093Z,94510.91
2023-03-08T00:08:10.821Z,94503.45
2023-03-08T00:10:39.555Z,94507.91
2023-03-08T00:13:08.381Z,94515.05
2023-03-08T00:15:39.612Z,94523.77
2023-03-08T00:18:08.329Z,94522.89
2023-03-08T00:20:36.944Z,94523.85
2023-03-08T00:23:05.446Z,94520.39
2023-03-08T00:25:34.158Z,94516.22
2023-03-08T00:28:02.792Z,94512.97
2023-03-08T00:30:34.285Z,94519.50
2023-03-08T00:33:04.444Z,94519.02
2023-03-08T00:35:33.079Z,94514.78
2023-03-08T00:38:01.887Z,94511.03
2023-03-08T00:40:30.744Z,94520.64
2023-03-08T00:42:59.694Z,94516.53
2023-03-08T00:45:28.514Z,94516.45
2023-03-08T00:47:57.151Z,94516.32
2023-03-08T00:50:28.391Z,94501.71
2023-03-08T00:52:57.068Z,94502.27
2023-03-08T00:55:25.734Z,94511.25
2023-03-08T00:57:54.527Z,94513.45
2023-03-08T01:00:24.046Z,94505.80
2023-03-08T01:02:53.031Z,94509.86
2023-03-08T01:05:21.625Z,94521.87
2023-03-08T01:07:50.244Z,94527.72
2023-03-08T01:10:22.115Z,94525.44
2023-03-08T01:12:53.802Z,94522.70
2023-03-08T01:15:22.563Z,94521.53
2023-03-08T01:17:54.737Z,94524.44
2023-03-08T01:20:23.746Z,94521.15
2023-03-08T01:22:53.524Z,94519.36
2023-03-08T01:25:25.045Z,94507.55
2023-03-08T01:27:55.996Z,94518.62
2023-03-08T01:30:26.320Z,94519.56
2023-03-08T01:32:57.876Z,94526.73
2023-03-08T01:35:28.250Z,94526.28
2023-03-08T01:37:59.882Z,94521.59
2023-03-08T01:40:30.016Z,94522.00
2023-03-08T01:43:01.767Z,94542.58
2023-03-08T01:45:59.056Z,94531.91
2023-03-08T01:48:30.787Z,94535.37
2023-03-08T01:51:02.142Z,94533.75
2023-03-08T01:53:35.134Z,94526.94
2023-03-08T01:56:06.267Z,94516.33
2023-03-08T01:58:36.265Z,94529.22
2023-03-08T02:01:07.896Z,94527.66
2023-03-08T02:03:36.638Z,94520.43
2023-03-08T02:06:05.683Z,94530.53
2023-03-08T02:08:36.167Z,94527.84
2023-03-08T02:11:05.189Z,94523.13
2023-03-08T02:13:36.180Z,94520.84
2023-03-08T02:16:08.106Z,94538.41
2023-03-08T02:18:36.897Z,94539.98
2023-03-08T02:21:06.520Z,94530.08
2023-03-08T02:23:35.184Z,94527.69
2023-03-08T02:26:05.809Z,94540.94
2023-03-08T02:28:39.099Z,94512.75
2023-03-08T02:31:08.114Z,94531.71
2023-03-08T02:33:38.004Z,94515.46
2023-03-08T02:36:14.621Z,94522.41
2023-03-08T02:38:43.545Z,94528.41
2023-03-08T02:41:12.172Z,94545.52
2023-03-08T02:43:40.934Z,94548.76
2023-03-08T02:46:14.752Z,94544.88
2023-03-08T02:48:45.154Z,94540.94
2023-03-08T02:51:32.035Z,94550.17
2023-03-08T02:54:08.705Z,94544.20
2023-03-08T02:56:37.716Z,94557.93
2023-03-08T02:59:07.245Z,94534.59
2023-03-08T03:01:38.441Z,94545.36
2023-03-08T03:04:08.765Z,94553.55
2023-03-08T03:06:40.264Z,94542.09
2023-03-08T03:09:12.336Z,94564.16
2023-03-08T03:11:45.350Z,94552.73
2023-03-08T03:14:14.341Z,94555.58
2023-03-08T03:16:46.299Z,94550.83
2023-03-08T03:19:15.616Z,94564.27
2023-03-08T03:21:48.267Z,94561.45
2023-03-08T03:24:20.159Z,94548.95
2023-03-08T03:26:53.664Z,94564.72
2023-03-08T03:29:24.607Z,94563.64
2023-03-08T03:31:55.146Z,94563.64
2023-03-08T03:34:34.837Z,94569.23
2023-03-08T03:40:58.809Z,94562.84
2023-03-08T03:43:46.937Z,94571.28
2023-03-08T03:51:58.071Z,94580.66
2023-03-08T04:07:46.016Z,94586.97
2023-03-08T04:10:16.306Z,94579.77
2023-03-08T04:12:45.377Z,94589.32
2023-03-08T04:15:17.843Z,94585.57
2023-03-08T04:17:48.646Z,94590.67
2023-03-08T04:20:18.608Z,94587.63
2023-03-08T04:22:47.519Z,94588.38
2023-03-08T04:25:17.885Z,94584.45
2023-03-08T04:27:47.217Z,94588.24
2023-03-08T04:30:16.230Z,94601.19
2023-03-08T04:32:45.283Z,94599.19
2023-03-08T04:35:15.718Z,94597.81
2023-03-08T04:37:47.720Z,94589.45
2023-03-08T04:40:16.802Z,94595.59
2023-03-08T04:42:48.398Z,94581.72
2023-03-08T04:45:18.853Z,94588.06
2023-03-08T04:47:47.819Z,94587.05
2023-03-08T04:50:16.691Z,94586.88
2023-03-08T04:52:45.532Z,94587.32
2023-03-08T04:59:19.519Z,94601.84
2023-03-08T05:01:49.104Z,94598.66
2023-03-08T05:04:17.953Z,94598.66
2023-03-08T05:06:49.712Z,94610.03
2023-03-08T05:09:20.025Z,94599.90
2023-03-08T05:11:50.265Z,94608.66
2023-03-08T05:14:22.439Z,94617.96
2023-03-08T05:16:51.463Z,94626.51
2023-03-08T05:19:20.218Z,94626.51
2023-03-08T05:21:49.050Z,94632.83
2023-03-08T05:24:18.034Z,94627.45
2023-03-08T05:26:55.939Z,94628.56
2023-03-08T05:29:24.877Z,94633.98
2023-03-08T05:31:53.589Z,94648.66
2023-03-08T05:34:22.261Z,94651.53
2023-03-08T05:36:52.278Z,94651.34
2023-03-08T05:39:21.089Z,94658.65
2023-03-08T05:41:50.495Z,94652.95
2023-03-08T05:44:21.942Z,94657.71
2023-03-08T05:46:56.794Z,94661.12
2023-03-08T05:49:25.488Z,94665.00
2023-03-08T05:51:55.036Z,94653.13
2023-03-08T05:54:27.180Z,94671.98
2023-03-08T05:56:58.551Z,94671.26
2023-03-08T05:59:27.491Z,94675.91
2023-03-08T06:02:05.356Z,94674.17
2023-03-08T06:10:51.506Z,94690.00
2023-03-08T06:13:24.101Z,94692.94
2023-03-08T06:15:49.528Z,94694.41
2023-03-08T06:18:22.950Z,94696.75
2023-03-08T06:21:00.472Z,94697.48
2023-03-08T06:23:33.093Z,94702.16
2023-03-08T06:26:24.281Z,94709.50
2023-03-08T06:29:04.820Z,94711.20
2023-03-08T06:31:41.834Z,94705.72
2023-03-08T06:34:19.631Z,94707.30
2023-03-08T06:36:51.579Z,94716.83
2023-03-08T06:39:20.662Z,94711.98
2023-03-08T06:41:55.146Z,94714.88
2023-03-08T06:44:25.601Z,94714.53
2023-03-08T06:46:57.769Z,94718.83
2023-03-08T06:52:56.480Z,94727.66
2023-03-08T06:58:38.532Z,94733.22
2023-03-08T07:01:19.563Z,94736.46
2023-03-08T07:04:10.147Z,94748.74
2023-03-08T07:06:43.214Z,94750.21
2023-03-08T07:09:13.492Z,94756.98
2023-03-08T07:11:42.563Z,94752.67
2023-03-08T07:14:12.277Z,94759.89
2023-03-08T07:16:42.675Z,94759.13
2023-03-08T07:19:13.182Z,94762.11
2023-03-08T07:21:55.637Z,94761.22
2023-03-08T07:24:26.222Z,94768.23
2023-03-08T07:36:30.907Z,94767.36
2023-03-08T07:39:13.170Z,94764.42
2023-03-08T07:41:56.440Z,94764.42
2023-03-08T07:47:56.198Z,94762.28
2023-03-08T07:50:26.538Z,94762.25
2023-03-08T07:52:55.615Z,94764.42
2023-03-08T07:55:28.759Z,94768.05
2023-03-08T07:58:03.326Z,94766.47
2023-03-08T08:00:40.955Z,94768.96
2023-03-08T08:09:25.110Z,94771.42
2023-03-08T08:12:08.655Z,94769.12
2023-03-08T08:15:04.189Z,94696.93
2023-03-08T08:26:49.639Z,94769.73
2023-03-08T08:29:21.969Z,94777.39
2023-03-08T08:32:02.600Z,94776.81
2023-03-08T08:34:40.041Z,94766.91
2023-03-08T08:41:36.140Z,94786.73
2023-03-08T08:44:18.821Z,94783.38
2023-03-08T08:46:50.387Z,94781.41
2023-03-08T08:49:19.215Z,94776.47
2023-03-08T08:58:03.059Z,94713.42
2023-03-08T09:03:43.523Z,94769.77
2023-03-08T09:06:18.434Z,94772.22
2023-03-08T09:09:01.135Z,94772.58
2023-03-08T09:14:33.080Z,94762.86
2023-03-08T09:17:03.751Z,94770.80
2023-03-08T09:19:38.995Z,94775.09
2023-03-08T09:22:17.869Z,94772.00
2023-03-08T09:24:49.882Z,94765.37
2023-03-08T09:27:20.896Z,94763.02
2023-03-08T09:29:49.991Z,94758.16
2023-03-08T09:32:21.852Z,94761.99
2023-03-08T09:34:51.525Z,94755.77
2023-03-08T09:37:20.394Z,94749.09
2023-03-08T09:39:52.152Z,94748.04
2023-03-08T09:42:30.635Z,94749.28
2023-03-08T09:45:02.518Z,94751.63
2023-03-08T09:47:34.162Z,94737.66
2023-03-08T09:50:05.774Z,94747.70
2023-03-08T09:52:38.557Z,94741.22
2023-03-08T09:55:10.174Z,94741.08
2023-03-08T09:57:41.966Z,94733.63
2023-03-08T10:00:15.199Z,94726.63
2023-03-08T10:02:49.684Z,94728.02
2023-03-08T10:05:39.488Z,94729.08
2023-03-08T10:08:20.283Z,94725.55
2023-03-08T10:11:12.261Z,94720.85
2023-03-08T10:13:43.940Z,94720.44
2023-03-08T10:16:18.811Z,94720.78
2023-03-08T10:18:59.505Z,94720.84
2023-03-08T10:21:31.369Z,94714.83
2023-03-08T10:24:19.228Z,94713.27
2023-03-08T10:26:59.340Z,94711.71
2023-03-08T10:29:31.494Z,94719.17
2023-03-08T10:32:03.993Z,94715.17
2023-03-08T10:37:53.555Z,94714.84
2023-03-08T10:40:23.032Z,94715.52
2023-03-08T10:42:56.603Z,94713.48
2023-03-08T10:45:28.705Z,94708.60
2023-03-08T10:48:05.643Z,94699.78
2023-03-08T10:50:37.072Z,94696.58
2023-03-08T10:53:24.531Z,94695.00
2023-03-08T10:55:54.560Z,94689.19
2023-03-08T10:58:40.507Z,94683.64
2023-03-08T11:01:12.281Z,94679.78
2023-03-08T11:03:41.115Z,94673.87
2023-03-08T11:06:16.851Z,94683.53
2023-03-08T11:08:56.741Z,94678.55
2023-03-08T11:11:27.773Z,94678.20
2023-03-08T11:13:56.969Z,94666.23
2023-03-08T11:16:45.626Z,94661.09
2023-03-08T11:19:17.430Z,94655.30
2023-03-08T11:22:05.942Z,94647.83
2023-03-08T11:24:40.618Z,94646.50
2023-03-08T11:27:30.523Z,94643.80
2023-03-08T11:30:14.140Z,94635.50
2023-03-08T11:33:03.693Z,94630.67
2023-03-08T11:35:38.466Z,94618.78
2023-03-08T11:38:15.768Z,94617.58
2023-03-08T11:40:47.401Z,94613.45
2023-03-08T11:43:46.404Z,94621.14
2023-03-08T11:46:50.308Z,94607.39
2023-03-08T11:49:47.953Z,94600.91
2023-03-08T11:52:31.504Z,94609.54
2023-03-08T11:55:22.513Z,94602.77
2023-03-08T11:57:59.363Z,94600.25
2023-03-08T12:00:41.992Z,94603.80
2023-03-08T12:03:26.817Z,94598.18
2023-03-08T12:15:29.855Z,94580.67
2023-03-08T12:18:15.532Z,94583.88
2023-03-08T12:20:52.315Z,94581.13
2023-03-08T12:23:40.072Z,94583.09
2023-03-08T12:26:28.924Z,94581.47
2023-03-08T12:31:59.723Z,94577.82
2023-03-08T12:34:53.989Z,94581.55
2023-03-08T12:37:28.765Z,94579.34
2023-03-08T12:46:08.060Z,94575.34
2023-03-08T12:48:43.019Z,94568.09
2023-03-08T12:51:25.007Z,94568.08
2023-03-08T12:53:56.602Z,94566.71
2023-03-08T12:56:52.732Z,94565.78
2023-03-08T12:59:24.574Z,94559.62
2023-03-08T13:02:05.192Z,94561.19
2023-03-08T13:04:41.820Z,94561.95
2023-03-08T13:07:22.177Z,94554.58
2023-03-08T13:10:18.109Z,94562.62
2023-03-08T13:13:06.368Z,94547.35
2023-03-08T13:15:35.318Z,94553.48
2023-03-08T13:18:09.983Z,94558.05
2023-03-08T13:20:45.095Z,94553.96
2023-03-08T13:23:22.388Z,94548.92
2023-03-08T13:26:12.113Z,94545.11
2023-03-08T13:28:47.631Z,94538.53
2023-03-08T13:31:26.478Z,94535.33
2023-03-08T13:38:10.241Z,94540.41
2023-03-08T13:40:54.404Z,94539.28
2023-03-08T13:43:25.353Z,94531.97
2023-03-08T13:45:57.217Z,94538.05
2023-03-08T13:48:37.012Z,94534.56
2023-03-08T13:51:09.251Z,94529.95
2023-03-08T13:53:41.305Z,94535.25
2023-03-08T13:56:31.677Z,94529.01
2023-03-08T13:59:01.684Z,94527.28
2023-03-08T14:01:30.602Z,94524.22
2023-03-08T14:04:01.032Z,94526.27
2023-03-08T14:06:34.397Z,94522.23
2023-03-08T14:09:03.995Z,94518.30
2023-03-08T14:11:36.038Z,94523.53
2023-03-08T14:14:09.232Z,94519.81
2023-03-08T14:16:42.206Z,94525.30
2023-03-08T14:19:22.553Z,94519.42
2023-03-08T14:21:54.444Z,94529.02
2023-03-08T14:24:26.038Z,94523.05
2023-03-08T14:27:03.630Z,94529.67
2023-03-08T14:29:34.713Z,94522.91
2023-03-08T14:32:15.801Z,94529.80
2023-03-08T14:34:50.110Z,94530.72
2023-03-08T14:37:30.147Z,94521.73
2023-03-08T14:40:16.730Z,94521.86
2023-03-08T14:42:48.062Z,94521.86
2023-03-08T14:45:26.647Z,94519.86
2023-03-08T14:47:58.793Z,94526.39
2023-03-08T14:50:32.454Z,94528.79
2023-03-08T14:53:04.184Z,94529.55
2023-03-08T14:55:35.588Z,94529.72
2023-03-08T14:58:07.273Z,94535.13
2023-03-08T15:00:36.167Z,94535.97
2023-03-08T15:03:05.200Z,94531.94
2023-03-08T15:05:36.585Z,94537.27
2023-03-08T15:08:05.353Z,94529.75
2023-03-08T15:10:45.010Z,94528.55
2023-03-08T15:13:16.711Z,94461.56
2023-03-08T15:15:45.749Z,94531.91
2023-03-08T15:18:14.934Z,94534.48
2023-03-08T15:20:48.701Z,94531.50
2023-03-08T15:23:33.498Z,94533.33
2023-03-08T15:29:36.025Z,94542.16
2023-03-08T15:32:04.192Z,94539.63
2023-03-08T15:34:32.750Z,94542.95
2023-03-08T15:37:01.576Z,94538.20
2023-03-08T15:39:30.327Z,94537.06
2023-03-08T15:41:59.978Z,94545.72
2023-03-08T15:44:28.764Z,94547.64
2023-03-08T15:46:57.799Z,94542.34
2023-03-08T15:52:56.167Z,94542.94
2023-03-08T15:55:26.970Z,94538.47
2023-03-08T15:57:55.783Z,94534.00
2023-03-08T16:00:25.138Z,94535.89
2023-03-08T16:02:54.124Z,94534.96
2023-03-08T16:08:39.840Z,94541.06
2023-03-08T16:11:13.377Z,94538.45
2023-03-08T16:13:42.287Z,94536.03
2023-03-08T16:19:54.898Z,94545.02
2023-03-08T16:22:24.598Z,94540.48
2023-03-08T16:24:53.326Z,94536.98
2023-03-08T16:30:23.993Z,94545.86
2023-03-08T16:32:56.180Z,94545.92
2023-03-08T16:35:26.482Z,94549.75
2023-03-08T16:38:01.100Z,94541.16
2023-03-08T16:43:58.246Z,94553.22
2023-03-08T16:46:27.086Z,94554.58
2023-03-08T16:48:57.158Z,94557.29
2023-03-08T16:51:30.629Z,94560.61
2023-03-08T16:53:59.293Z,94564.08
2023-03-08T16:56:29.899Z,94570.42
2023-03-08T16:59:04.607Z,94574.80
2023-03-08T17:02:06.777Z,94574.25
2023-03-08T17:04:35.761Z,94573.48
2023-03-08T17:07:06.249Z,94562.86
2023-03-08T17:09:35.840Z,94571.61
2023-03-08T17:15:34.805Z,94579.98
2023-03-08T17:18:03.616Z,94583.06
2023-03-08T17:20:32.609Z,94579.71
2023-03-08T17:23:01.280Z,94585.44
2023-03-08T17:25:33.110Z,94592.50
2023-03-08T17:28:02.213Z,94594.22
2023-03-08T17:30:31.556Z,94603.34
2023-03-08T17:33:00.280Z,94607.75
2023-03-08T17:35:29.410Z,94614.02
2023-03-08T17:37:58.219Z,94624.67
2023-03-08T17:40:26.892Z,94627.75
2023-03-08T17:42:58.496Z,94635.97
2023-03-08T17:45:29.147Z,94634.22
2023-03-08T17:47:59.562Z,94641.11
2023-03-08T17:50:30.304Z,94649.87
2023-03-08T17:53:00.470Z,94654.62
2023-03-08T17:55:29.389Z,94651.37
2023-03-08T17:57:58.082Z,94655.39
2023-03-08T18:00:28.040Z,94660.16
2023-03-08T18:02:56.663Z,94657.12
2023-03-08T18:05:25.240Z,94659.02
2023-03-08T18:07:53.910Z,94669.31
2023-03-08T18:10:22.771Z,94672.18
2023-03-08T18:12:53.295Z,94684.56
2023-03-08T18:15:23.245Z,94673.69
2023-03-08T18:17:52.059Z,94673.31
2023-03-08T18:20:20.837Z,94675.97
2023-03-08T18:22:50.890Z,94683.78
2023-03-08T18:25:20.686Z,94687.97
2023-03-08T18:27:50.655Z,94683.97
2023-03-08T18:30:19.760Z,94688.17
2023-03-08T18:32:50.710Z,94679.02
2023-03-08T18:35:19.491Z,94673.12
2023-03-08T18:37:48.135Z,94673.89
2023-03-08T18:40:16.764Z,94675.61
2023-03-08T18:42:45.424Z,94676.72
2023-03-08T18:45:15.008Z,94675.58
2023-03-08T18:47:43.803Z,94676.36
2023-03-08T18:50:13.352Z,94666.08
2023-03-08T18:52:43.154Z,94673.13
2023-03-08T18:55:13.140Z,94674.26
2023-03-08T18:57:43.472Z,94678.45
2023-03-08T19:00:15.555Z,94674.64
2023-03-08T19:02:44.212Z,94676.55
2023-03-08T19:05:13.067Z,94686.61
2023-03-08T19:07:41.695Z,94687.17
2023-03-08T19:10:13.187Z,94682.98
2023-03-08T19:16:25.890Z,94684.52
2023-03-08T19:19:00.667Z,94684.90
2023-03-08T19:21:35.140Z,94701.84
2023-03-08T19:24:05.441Z,94696.13
2023-03-08T19:26:37.160Z,94696.91
2023-03-08T19:29:12.126Z,94703.00
2023-03-08T19:31:46.724Z,94710.44
2023-03-08T19:34:16.046Z,94710.06
2023-03-08T19:36:46.305Z,94701.50
2023-03-08T19:39:21.759Z,94705.09
2023-03-08T19:48:19.293Z,94711.62
2023-03-08T19:50:48.179Z,94717.06
2023-03-08T19:53:16.877Z,94718.86
2023-03-08T19:55:55.538Z,94722.67
2023-03-08T19:58:24.794Z,94727.99
2023-03-08T20:00:58.123Z,94728.52
2023-03-08T20:03:28.518Z,94728.59
2023-03-08T20:05:57.594Z,94722.23
2023-03-08T20:08:30.399Z,94723.41
2023-03-08T20:10:58.921Z,94728.36
2023-03-08T20:13:30.969Z,94730.36
2023-03-08T20:15:59.852Z,94730.86
2023-03-08T20:18:29.320Z,94738.33
2023-03-08T20:20:59.084Z,94736.00
2023-03-08T20:23:27.788Z,94735.23
2023-03-08T20:25:56.438Z,94739.56
2023-03-08T20:28:25.114Z,94739.23
2023-03-08T20:30:55.035Z,94740.00
2023-03-08T20:33:23.825Z,94745.41
2023-03-08T20:36:02.449Z,94749.36
2023-03-08T20:38:31.146Z,94754.10
2023-03-08T20:41:11.345Z,94753.77
2023-03-08T20:43:40.954Z,94745.51
2023-03-08T20:46:11.742Z,94746.53
2023-03-08T20:48:43.170Z,94745.41
2023-03-08T20:51:14.635Z,94748.87
2023-03-08T20:53:43.397Z,94742.03
2023-03-08T20:56:14.822Z,94741.04
2023-03-08T20:58:47.199Z,94739.91
2023-03-08T21:01:18.958Z,94738.08
2023-03-08T21:03:48.965Z,94739.36
2023-03-08T21:06:23.656Z,94728.72
2023-03-08T21:08:55.465Z,94729.00
2023-03-08T21:11:24.460Z,94730.01
2023-03-08T21:13:53.722Z,94727.34
2023-03-08T21:16:24.757Z,94726.20
2023-03-08T21:18:54.700Z,94728.68
2023-03-08T21:21:30.377Z,94730.24
2023-03-08T21:24:01.296Z,94730.83
2023-03-08T21:26:30.940Z,94728.63
2023-03-08T21:29:04.888Z,94732.88
2023-03-08T21:31:36.375Z,94740.52
2023-03-08T21:34:06.673Z,94733.39
2023-03-08T21:36:38.145Z,94735.14
2023-03-08T21:39:08.422Z,94727.08
2023-03-08T21:41:39.297Z,94733.67
2023-03-08T21:44:10.848Z,94728.73
2023-03-08T21:46:41.427Z,94720.38
2023-03-08T21:49:13.215Z,94716.18
2023-03-08T21:51:45.050Z,94721.07
2023-03-08T21:54:14.157Z,94719.60
2023-03-08T21:56:42.718Z,94717.72
2023-03-08T21:59:11.428Z,94719.37
2023-03-08T22:01:40.577Z,94719.74
2023-03-08T22:04:09.329Z,94641.02
2023-03-08T22:06:37.933Z,94712.08
2023-03-08T22:09:06.464Z,94715.66
2023-03-08T22:11:35.287Z,94719.77
2023-03-08T22:14:03.964Z,94713.07
2023-03-08T22:16:33.866Z,94718.00
2023-03-08T22:19:06.570Z,94718.56
2023-03-08T22:21:35.393Z,94719.64
2023-03-08T22:24:04.174Z,94713.58
2023-03-08T22:26:33.434Z,94713.06
2023-03-08T22:29:02.147Z,94711.58
2023-03-08T22:31:31.718Z,94714.22
2023-03-08T22:34:01.608Z,94721.45
2023-03-08T22:36:30.320Z,94723.34
2023-03-08T22:39:00.526Z,94718.72
2023-03-08T22:41:31.554Z,94664.89
2023-03-08T22:44:02.417Z,94714.47
2023-03-08T22:46:31.655Z,94699.44
2023-03-08T22:49:02.391Z,94718.22
2023-03-08T22:51:31.564Z,94713.14
2023-03-08T22:54:02.959Z,94714.09
2023-03-08T22:56:34.363Z,94713.02
2023-03-08T22:59:04.082Z,94708.66
2023-03-08T23:01:34.986Z,94705.45
2023-03-08T23:04:05.424Z,94710.98
2023-03-08T23:06:34.495Z,94697.17
2023-03-08T23:09:10.983Z,94692.99
2023-03-08T23:11:39.876Z,94691.97
2023-03-08T23:14:09.064Z,94696.61
2023-03-08T23:16:40.911Z,94702.31
2023-03-08T23:19:12.529Z,94702.81
2023-03-08T23:21:45.488Z,94705.63
2023-03-08T23:24:14.314Z,94700.30
2023-03-08T23:26:45.480Z,94697.27
2023-03-08T23:29:15.918Z,94698.25
2023-03-08T23:31:49.636Z,94708.73
2023-03-08T23:34:19.620Z,94713.52
2023-03-08T23:36:48.447Z,94710.45
2023-03-08T23:39:18.832Z,94703.52
2023-03-08T23:41:47.864Z,94713.34
2023-03-08T23:44:18.472Z,94710.88
2023-03-08T23:46:47.334Z,94705.02
2023-03-08T23:49:17.829Z,94699.61
2023-03-08T23:51:49.327Z,94709.27
2023-03-08T23:54:21.042Z,94696.59
2023-03-08T23:56:52.682Z,94701.60
2023-03-08T23:59:24.240Z,94706.61
